Terminal Aerodrome Forecast
Issued by NWS Spokane, WA

Home | Current Version | Previous Version | Text Only | Print | Product List | Glossary On
Versions: 1 2 3 4 5 6 7 8 9 10 11 12 13 14 15 16 17 18 19 20 21 22 23
000
FTUS46 KOTX 182320
TAFEAT
TAF
KEAT 182320Z 1900/1924 30018G26KT P6SM SCT090 BKN100
     FM190300 30013KT P6SM SCT100 BKN150
     FM190900 30008KT P6SM SCT150=

USA.gov is the U.S. government's official web portal to all federal, state and local government web resources and services.